Time;durP1;ratioP1;P1;durP2;ratioP2;P2;SDS_P1;SDS_P2;PMS_P1;PMS_P2;Temp;Humidity;BMP_temperature;BMP_pressure;BME280_temperature;BME280_humidity;BME280_pressure;Samples;Min_cycle;Max_cycle;Signal;HPM_P1;HPM_P2
2022/01/16 00:04:17;;;;;;;11.65;3.47;;;;;;;-2.30;86.54;99775.50;4484030;31;20072;-71
2022/01/16 00:06:46;;;;;;;12.93;4.03;;;;;;;-2.34;86.77;99772.13;4484025;31;20096;-71
2022/01/16 00:09:13;;;;;;;12.05;4.57;;;;;;;-2.36;86.88;99768.78;4483954;31;20092;-71
2022/01/16 00:11:42;;;;;;;11.60;3.45;;;;;;;-2.34;87.04;99749.03;4484048;32;20129;-71
2022/01/16 00:14:10;;;;;;;10.98;3.33;;;;;;;-2.28;86.79;99749.81;4486217;31;20115;-71
2022/01/16 00:16:41;;;;;;;9.10;3.58;;;;;;;-2.32;86.77;99734.47;4486196;31;20397;-71
2022/01/16 00:19:09;;;;;;;12.98;4.15;;;;;;;-2.11;86.29;99728.91;4486023;31;20096;-71
2022/01/16 00:21:39;;;;;;;11.32;3.58;;;;;;;-2.10;85.89;99751.97;4485786;31;20096;-71
2022/01/16 00:24:07;;;;;;;16.15;3.50;;;;;;;-2.06;85.82;99766.44;4485877;31;20094;-71
2022/01/16 00:26:36;;;;;;;11.40;4.43;;;;;;;-2.07;85.58;99769.06;4485860;31;20096;-71
2022/01/16 00:29:07;;;;;;;11.02;3.75;;;;;;;-1.86;84.78;99788.25;4485852;31;20135;-71
2022/01/16 00:31:37;;;;;;;10.50;3.78;;;;;;;-1.93;84.60;99779.03;4485989;31;20080;-71
2022/01/16 00:34:05;;;;;;;11.35;3.58;;;;;;;-2.25;85.25;99742.87;4486101;31;20426;-71
2022/01/16 00:36:33;;;;;;;16.23;3.72;;;;;;;-2.34;86.38;99756.75;4486038;31;20096;-71
2022/01/16 00:39:00;;;;;;;12.32;3.83;;;;;;;-2.12;85.78;99763.16;4486102;31;20150;-71
2022/01/16 00:41:27;;;;;;;16.80;4.45;;;;;;;-2.13;85.17;99762.31;4485946;31;20477;-71
2022/01/16 00:43:55;;;;;;;12.57;3.92;;;;;;;-2.47;86.22;99760.44;4485911;31;20104;-71
2022/01/16 00:46:22;;;;;;;9.60;3.58;;;;;;;-2.54;86.98;99756.31;4485768;31;20167;-71
2022/01/16 00:48:50;;;;;;;14.30;3.83;;;;;;;-2.60;87.47;99721.38;4485706;31;20119;-71
2022/01/16 00:51:17;;;;;;;8.52;3.70;;;;;;;-2.63;87.79;99736.81;4485822;31;20092;-71
2022/01/16 00:53:45;;;;;;;11.95;4.12;;;;;;;-2.59;87.90;99743.59;4485654;31;20092;-71
2022/01/16 00:56:13;;;;;;;11.07;4.35;;;;;;;-2.62;88.22;99750.47;4485967;31;20427;-71
2022/01/16 00:58:40;;;;;;;10.50;4.18;;;;;;;-2.67;88.54;99763.38;4485766;31;20484;-71
2022/01/16 01:01:08;;;;;;;13.85;4.30;;;;;;;-2.76;89.14;99741.31;4485459;31;20217;-71
2022/01/16 01:03:36;;;;;;;7.95;3.97;;;;;;;-2.68;89.71;99736.91;4485714;31;20145;-71
2022/01/16 01:06:04;;;;;;;12.90;4.37;;;;;;;-2.67;89.23;99745.44;4485775;31;20092;-71
2022/01/16 01:08:31;;;;;;;12.30;3.87;;;;;;;-2.67;89.55;99736.00;4485617;31;20093;-71
2022/01/16 01:11:02;;;;;;;11.65;3.80;;;;;;;-2.77;89.08;99757.59;4485641;31;20123;-71
2022/01/16 01:16:03;;;;;;;15.50;4.05;;;;;;;-2.90;88.79;99771.53;4485702;31;20104;-71
2022/01/16 01:18:33;;;;;;;10.38;3.83;;;;;;;-3.07;88.30;99767.53;4485648;31;20084;-71
2022/01/16 01:21:03;;;;;;;20.50;4.62;;;;;;;-3.41;87.92;99669.91;4485278;31;20084;-71
2022/01/16 01:23:30;;;;;;;9.63;3.70;;;;;;;-3.67;88.38;99665.22;4484959;32;20155;-71
2022/01/16 01:25:58;;;;;;;10.45;3.90;;;;;;;-3.84;89.14;99686.81;4485487;31;20115;-71
2022/01/16 01:28:25;;;;;;;17.08;4.87;;;;;;;-3.97;89.81;99681.03;4485550;31;20084;-71
2022/01/16 01:30:52;;;;;;;19.35;6.03;;;;;;;-4.08;90.43;99682.94;4485319;31;20204;-71
2022/01/16 01:33:20;;;;;;;12.85;5.60;;;;;;;-4.18;91.91;99712.94;4485361;31;20105;-71
2022/01/16 01:35:48;;;;;;;15.23;5.35;;;;;;;-4.22;92.02;99710.41;4485464;31;20088;-71
2022/01/16 01:38:20;;;;;;;13.55;4.87;;;;;;;-4.30;93.13;99738.66;4485526;31;20088;-71
2022/01/16 01:40:49;;;;;;;11.68;4.20;;;;;;;-4.35;93.73;99753.22;4485501;32;20141;-71
2022/01/16 01:51:36;;;;;;;16.42;5.43;;;;;;;-4.40;93.79;99762.69;4485234;31;20123;-71
2022/01/16 01:54:06;;;;;;;9.95;4.97;;;;;;;-4.44;93.83;99725.22;4485178;31;20115;-72
2022/01/16 01:56:35;;;;;;;11.35;5.20;;;;;;;-4.54;93.94;99730.44;4485394;31;20152;-72
2022/01/16 01:59:03;;;;;;;11.55;4.87;;;;;;;-4.57;94.08;99743.28;4485304;31;20165;-71
2022/01/16 02:01:31;;;;;;;12.40;5.28;;;;;;;-4.56;94.04;99742.37;4485068;31;20080;-71
2022/01/16 02:03:58;;;;;;;20.02;7.07;;;;;;;-4.56;93.89;99742.37;4485344;31;20486;-72
2022/01/16 02:06:30;;;;;;;21.33;6.65;;;;;;;-4.56;93.95;99746.66;4485233;31;20799;-72
2022/01/16 02:09:01;;;;;;;21.70;7.95;;;;;;;-4.63;94.01;99730.56;4485386;31;20088;-72
2022/01/16 02:11:31;;;;;;;18.80;6.15;;;;;;;-4.76;94.39;99734.13;4485226;31;20140;-71
2022/01/16 02:14:08;;;;;;;17.95;5.82;;;;;;;-4.84;94.56;99737.59;4485248;31;20088;-71
2022/01/16 02:28:20;;;;;;;17.83;5.47;;;;;;;-5.08;94.63;99764.25;4485129;31;20100;-72
2022/01/16 02:35:52;;;;;;;24.42;7.25;;;;;;;-5.21;95.42;99777.97;4483696;32;20577;-71
2022/01/16 02:38:20;;;;;;;20.10;8.30;;;;;;;-5.26;95.36;99780.56;4485151;31;20091;-72
2022/01/16 02:40:52;;;;;;;26.15;6.93;;;;;;;-5.28;95.45;99763.56;4484901;31;20819;-72
2022/01/16 02:43:28;;;;;;;23.42;8.15;;;;;;;-5.36;95.60;99769.59;4485191;31;20084;-72
2022/01/16 02:48:57;;;;;;;20.40;8.18;;;;;;;-5.47;97.11;99765.44;4466682;32;20150;-72
2022/01/16 02:51:26;;;;;;;24.65;8.57;;;;;;;-5.50;97.81;99780.78;4466696;32;20112;-72
2022/01/16 02:53:53;;;;;;;27.10;9.65;;;;;;;-5.52;97.89;99768.03;4466538;32;20128;-72
2022/01/16 02:56:21;;;;;;;22.27;9.85;;;;;;;-5.58;98.38;99768.09;4466931;32;20811;-72
2022/01/16 02:58:49;;;;;;;28.38;9.70;;;;;;;-5.56;98.46;99756.97;4467074;32;20100;-72
2022/01/16 03:01:16;;;;;;;29.35;11.15;;;;;;;-5.56;99.05;99744.22;4458422;32;20127;-72
2022/01/16 03:03:45;;;;;;;30.83;11.12;;;;;;;-5.54;99.00;99745.06;4451177;32;20174;-72
2022/01/16 03:06:13;;;;;;;35.92;15.02;;;;;;;-5.42;98.46;99740.72;4451273;32;20287;-72
2022/01/16 03:08:40;;;;;;;48.10;15.40;;;;;;;-5.25;98.48;99738.88;4451074;32;20132;-72
2022/01/16 03:11:20;;;;;;;49.50;18.45;;;;;;;-5.18;98.96;99740.50;4450935;32;20469;-72
2022/01/16 03:13:48;;;;;;;46.83;17.50;;;;;;;-5.07;99.92;99740.41;4451177;32;20447;-72
2022/01/16 03:16:17;;;;;;;41.58;17.40;;;;;;;-5.11;100.00;99737.88;4450855;32;20116;-72
2022/01/16 03:24:17;;;;;;;54.03;19.45;;;;;;;-5.20;100.00;99738.81;4467371;32;20123;-72
2022/01/16 03:26:44;;;;;;;59.20;21.48;;;;;;;-5.14;100.00;99717.47;4468643;32;20097;-72
2022/01/16 03:29:12;;;;;;;44.15;19.15;;;;;;;-5.25;100.00;99720.16;4468803;32;20096;-72
2022/01/16 03:31:39;;;;;;;49.65;19.05;;;;;;;-5.15;100.00;99718.34;4468737;32;20092;-72
2022/01/16 03:34:06;;;;;;;47.08;17.65;;;;;;;-5.12;100.00;99725.97;4468747;32;20151;-72
2022/01/16 03:36:33;;;;;;;53.08;17.12;;;;;;;-5.21;100.00;99720.09;4468713;32;20115;-72
2022/01/16 03:39:01;;;;;;;44.40;17.80;;;;;;;-5.18;100.00;99722.62;4468551;32;20126;-72
2022/01/16 03:41:29;;;;;;;46.67;17.30;;;;;;;-5.22;100.00;99720.94;4468552;32;20114;-72
2022/01/16 03:44:02;;;;;;;48.00;17.33;;;;;;;-5.28;100.00;99720.16;4468468;32;20124;-72
2022/01/16 03:46:34;;;;;;;46.70;16.08;;;;;;;-5.31;100.00;99720.19;4468860;32;20131;-72
2022/01/16 03:49:09;;;;;;;42.47;16.23;;;;;;;-5.36;100.00;99715.12;4470576;32;20111;-72
2022/01/16 03:51:38;;;;;;;36.67;14.60;;;;;;;-5.38;100.00;99716.84;4470409;32;20093;-72
2022/01/16 03:54:07;;;;;;;36.42;15.40;;;;;;;-5.26;100.00;99710.78;4470292;32;20096;-72
2022/01/16 03:56:35;;;;;;;38.88;14.73;;;;;;;-5.24;100.00;99711.59;4470481;32;20093;-72
2022/01/16 03:59:03;;;;;;;35.55;12.90;;;;;;;-5.29;100.00;99709.09;4470455;32;20097;-72
2022/01/16 04:01:30;;;;;;;33.75;12.93;;;;;;;-5.20;100.00;99714.09;4480038;32;20690;-72
2022/01/16 04:03:58;;;;;;;31.40;13.32;;;;;;;-5.21;100.00;99707.34;4484708;32;20481;-72
2022/01/16 04:06:25;;;;;;;25.48;11.65;;;;;;;-5.19;100.00;99710.72;4486179;31;20096;-72
2022/01/16 04:08:54;;;;;;;34.97;11.57;;;;;;;-5.19;100.00;99704.75;4485926;31;20096;-72
2022/01/16 04:11:24;;;;;;;37.58;12.55;;;;;;;-5.25;100.00;99700.56;4486327;31;20088;-72
2022/01/16 04:13:53;;;;;;;34.95;11.85;;;;;;;-5.10;100.00;99701.25;4486266;31;20535;-72
2022/01/16 04:16:23;;;;;;;27.48;11.38;;;;;;;-5.05;100.00;99700.34;4485964;31;20451;-72
2022/01/16 04:18:51;;;;;;;25.15;11.00;;;;;;;-5.14;100.00;99697.03;4485939;32;20441;-72
2022/01/16 04:21:19;;;;;;;29.33;11.27;;;;;;;-5.07;100.00;99704.63;4485891;31;20104;-72
2022/01/16 04:23:47;;;;;;;27.98;10.80;;;;;;;-5.12;100.00;99698.69;4486106;31;20096;-72
2022/01/16 04:26:16;;;;;;;26.70;10.98;;;;;;;-5.09;100.00;99697.84;4486108;31;20089;-72
2022/01/16 04:28:46;;;;;;;26.55;9.73;;;;;;;-5.08;100.00;99697.81;4485956;31;20375;-72
2022/01/16 04:31:14;;;;;;;34.70;10.25;;;;;;;-5.19;100.00;99707.31;4485972;31;20092;-72
2022/01/16 04:33:42;;;;;;;26.73;10.25;;;;;;;-5.21;100.00;99717.53;4485819;31;20148;-72
2022/01/16 04:36:10;;;;;;;28.92;9.70;;;;;;;-5.20;100.00;99709.00;4486032;31;20178;-72
2022/01/16 04:38:44;;;;;;;31.67;11.35;;;;;;;-5.22;100.00;99705.63;4485962;31;20092;-72
2022/01/16 04:44:02;;;;;;;28.55;11.00;;;;;;;-5.23;100.00;99719.25;4485926;31;20143;-72
2022/01/16 04:46:31;;;;;;;28.85;10.50;;;;;;;-5.01;100.00;99706.25;4485983;31;20100;-72
2022/01/16 04:49:00;;;;;;;35.13;11.85;;;;;;;-5.06;100.00;99705.47;4485846;31;20100;-72
2022/01/16 04:51:29;;;;;;;33.97;11.85;;;;;;;-5.17;100.00;99703.87;4485681;31;20544;-72
2022/01/16 04:53:56;;;;;;;32.42;12.82;;;;;;;-5.25;100.00;99705.66;4485512;31;20133;-72
2022/01/16 04:56:23;;;;;;;28.45;11.18;;;;;;;-5.08;100.00;99696.97;4485948;31;20163;-72
2022/01/16 04:58:51;;;;;;;28.33;12.40;;;;;;;-5.07;100.00;99693.53;4484845;32;20499;-72
2022/01/16 05:01:18;;;;;;;39.65;13.68;;;;;;;-5.22;100.00;99695.41;4485558;32;20101;-72
2022/01/16 05:03:45;;;;;;;28.27;12.23;;;;;;;-5.31;100.00;99707.41;4485684;31;20538;-72
2022/01/16 05:06:14;;;;;;;34.83;13.25;;;;;;;-5.21;100.00;99702.22;4485789;31;20465;-72
2022/01/16 05:08:41;;;;;;;30.77;12.37;;;;;;;-5.25;100.00;99692.06;4485795;31;20119;-72
2022/01/16 05:11:09;;;;;;;27.40;12.05;;;;;;;-5.35;100.00;99693.84;4485872;31;20555;-72
2022/01/16 05:18:52;;;;;;;33.22;12.43;;;;;;;-5.55;100.00;99689.75;4485711;31;20147;-72
2022/01/16 05:21:20;;;;;;;37.88;12.80;;;;;;;-5.66;100.00;99701.78;4485803;31;20092;-72
2022/01/16 05:23:47;;;;;;;39.92;13.25;;;;;;;-5.70;100.00;99692.44;4485425;31;20122;-72
2022/01/16 05:26:18;;;;;;;38.67;14.00;;;;;;;-5.83;100.00;99691.69;4485685;31;20092;-72
2022/01/16 05:28:45;;;;;;;38.85;15.20;;;;;;;-5.80;100.00;99686.56;4485595;31;20088;-72
2022/01/16 05:31:13;;;;;;;36.25;14.45;;;;;;;-5.90;100.00;99690.88;4485640;31;20092;-72
2022/01/16 05:33:40;;;;;;;40.15;15.93;;;;;;;-5.83;100.00;99703.59;4485203;31;20115;-72
2022/01/16 05:36:07;;;;;;;40.85;16.90;;;;;;;-5.58;100.00;99705.09;4485669;31;20096;-72
2022/01/16 05:38:34;;;;;;;40.45;16.05;;;;;;;-5.49;100.00;99696.53;4485426;31;20104;-72
2022/01/16 05:41:02;;;;;;;49.70;18.02;;;;;;;-5.58;100.00;99705.09;4485674;31;20465;-72
2022/01/16 05:43:29;;;;;;;56.08;19.08;;;;;;;-5.63;100.00;99701.75;4485686;31;20441;-72
2022/01/16 05:45:56;;;;;;;44.70;18.65;;;;;;;-5.60;100.00;99706.81;4485414;31;20567;-72
2022/01/16 05:48:26;;;;;;;46.42;19.35;;;;;;;-5.55;100.00;99717.00;4485236;31;20089;-72
2022/01/16 05:50:54;;;;;;;47.15;19.65;;;;;;;-5.64;100.00;99712.81;4485295;31;20495;-72
2022/01/16 05:53:21;;;;;;;49.00;17.70;;;;;;;-5.70;99.91;99711.13;4485230;31;20140;-72
2022/01/16 05:55:49;;;;;;;45.55;18.40;;;;;;;-5.98;100.00;99717.34;4485366;31;20134;-72
2022/01/16 05:58:16;;;;;;;52.28;20.23;;;;;;;-5.95;100.00;99725.81;4485329;31;20390;-72
2022/01/16 06:00:47;;;;;;;47.00;19.52;;;;;;;-6.02;100.00;99720.78;4485208;31;20123;-72
2022/01/16 06:03:15;;;;;;;44.08;19.23;;;;;;;-5.97;100.00;99740.28;4485222;31;20080;-71
2022/01/16 06:05:42;;;;;;;38.08;16.77;;;;;;;-6.06;100.00;99732.69;4485211;31;20465;-72
2022/01/16 06:08:12;;;;;;;44.03;16.00;;;;;;;-6.13;100.00;99725.94;4485398;31;20469;-72
2022/01/16 06:10:39;;;;;;;40.72;16.35;;;;;;;-6.13;100.00;99733.59;4484852;31;20119;-72
2022/01/16 06:13:07;;;;;;;46.20;15.20;;;;;;;-6.20;100.00;99729.41;4485229;31;20096;-72
2022/01/16 06:15:35;;;;;;;37.97;15.23;;;;;;;-6.16;100.00;99736.16;4485463;31;20475;-72
2022/01/16 06:18:03;;;;;;;39.35;14.63;;;;;;;-6.16;100.00;99724.25;4485049;31;20115;-72
2022/01/16 06:20:30;;;;;;;39.97;14.68;;;;;;;-6.15;100.00;99736.13;4485152;31;20179;-72
2022/01/16 06:22:57;;;;;;;39.00;15.43;;;;;;;-6.18;100.00;99730.22;4485063;31;20092;-72
2022/01/16 06:25:25;;;;;;;39.45;15.77;;;;;;;-6.26;100.00;99736.19;4485041;31;20150;-72
2022/01/16 06:27:52;;;;;;;34.63;14.48;;;;;;;-6.34;100.00;99737.97;4485191;31;20123;-72
2022/01/16 06:30:20;;;;;;;40.83;14.65;;;;;;;-6.31;100.00;99737.94;4485188;31;20096;-71
2022/01/16 06:32:48;;;;;;;34.40;14.63;;;;;;;-6.31;100.00;99737.94;4485158;31;20517;-72
2022/01/16 06:35:15;;;;;;;29.27;13.32;;;;;;;-6.19;100.00;99731.94;4485004;31;20092;-72
2022/01/16 06:37:43;;;;;;;38.72;14.07;;;;;;;-6.17;100.00;99737.03;4485007;31;20502;-71
2022/01/16 06:40:12;;;;;;;33.10;13.90;;;;;;;-6.09;100.00;99732.72;4485021;31;20103;-72
2022/01/16 06:42:40;;;;;;;52.17;14.40;;;;;;;-6.03;100.00;99740.31;4485084;31;20092;-72
2022/01/16 06:45:08;;;;;;;38.25;14.25;;;;;;;-5.94;100.00;99747.88;4484922;31;20088;-72
2022/01/16 06:47:36;;;;;;;38.97;13.80;;;;;;;-6.09;100.00;99737.81;4485058;31;20104;-72
2022/01/16 06:50:04;;;;;;;41.10;15.85;;;;;;;-6.03;100.00;99750.53;4484681;31;20092;-72
2022/01/16 06:52:31;;;;;;;28.08;12.48;;;;;;;-6.00;100.00;99740.31;4485172;31;20088;-72
2022/01/16 06:54:58;;;;;;;27.83;12.90;;;;;;;-6.05;100.00;99742.06;4484771;31;20091;-72
2022/01/16 06:57:26;;;;;;;29.35;11.90;;;;;;;-5.96;100.00;99736.84;4484965;31;20089;-72
2022/01/16 06:59:53;;;;;;;26.62;12.20;;;;;;;-5.79;100.00;99733.34;4484740;31;20123;-72
2022/01/16 07:02:22;;;;;;;29.30;13.35;;;;;;;-5.82;100.00;99730.81;4484535;31;20092;-72
2022/01/16 07:04:50;;;;;;;34.70;14.52;;;;;;;-5.75;100.00;99740.97;4484788;31;20084;-72
2022/01/16 07:07:17;;;;;;;31.90;14.30;;;;;;;-5.59;100.00;99730.62;4484909;31;20208;-72
2022/01/16 07:09:45;;;;;;;30.27;12.43;;;;;;;-5.43;100.00;99731.38;4484823;31;20096;-72
2022/01/16 07:12:12;;;;;;;36.30;13.77;;;;;;;-5.50;100.00;99729.72;4484855;31;20110;-72
2022/01/16 07:14:40;;;;;;;32.30;13.77;;;;;;;-5.39;100.00;99733.87;4484731;31;20100;-72
2022/01/16 07:17:07;;;;;;;35.95;14.00;;;;;;;-5.41;100.00;99739.84;4484654;32;20232;-72
2022/01/16 07:19:35;;;;;;;37.17;13.68;;;;;;;-5.19;100.00;99735.41;4484618;32;20393;-72
2022/01/16 07:22:02;;;;;;;35.70;15.18;;;;;;;-5.10;100.00;99740.44;4483462;31;20123;-72
2022/01/16 07:24:32;;;;;;;39.72;15.43;;;;;;;-4.92;100.00;99753.88;4484618;31;20092;-72
2022/01/16 07:27:01;;;;;;;43.78;14.10;;;;;;;-4.78;100.00;99756.28;4484261;31;20161;-72
2022/01/16 07:29:30;;;;;;;41.30;16.10;;;;;;;-4.73;99.91;99757.09;4484799;31;20127;-72
2022/01/16 07:31:57;;;;;;;40.85;16.00;;;;;;;-4.83;99.98;99754.63;4484443;31;20440;-72
2022/01/16 07:34:24;;;;;;;30.08;12.20;;;;;;;-4.68;99.95;99742.53;4484359;31;20107;-72
2022/01/16 07:36:52;;;;;;;31.08;13.82;;;;;;;-4.44;98.94;99738.00;4484271;32;20206;-72
2022/01/16 07:39:19;;;;;;;32.67;13.75;;;;;;;-4.49;98.47;99744.00;4484345;31;20115;-72
2022/01/16 07:41:46;;;;;;;35.70;14.43;;;;;;;-4.39;98.55;99739.66;4484182;31;20096;-72
2022/01/16 07:44:14;;;;;;;34.67;13.35;;;;;;;-4.24;98.11;99747.97;4484665;32;20091;-72
2022/01/16 07:46:41;;;;;;;39.95;14.38;;;;;;;-4.22;98.21;99756.47;4484076;31;20690;-72
2022/01/16 07:49:08;;;;;;;43.38;15.48;;;;;;;-4.19;97.94;99759.84;4484141;31;20643;-72
2022/01/16 07:51:36;;;;;;;33.60;14.25;;;;;;;-4.02;97.87;99753.66;4484008;31;20092;-72
2022/01/16 07:54:03;;;;;;;46.50;16.83;;;;;;;-3.96;96.99;99761.25;4484165;31;21012;-72
2022/01/16 07:56:30;;;;;;;36.35;14.90;;;;;;;-3.83;96.59;99759.34;4484067;31;20105;-72
2022/01/16 07:58:58;;;;;;;33.13;15.52;;;;;;;-3.79;96.18;99741.34;4484039;31;20716;-72
2022/01/16 08:01:25;;;;;;;46.17;16.30;;;;;;;-3.85;96.45;99744.00;4483965;31;20111;-72
2022/01/16 08:03:52;;;;;;;44.75;16.10;;;;;;;-3.92;96.76;99734.75;4483882;31;20080;-72
2022/01/16 08:06:20;;;;;;;40.25;16.08;;;;;;;-3.79;96.36;99741.34;4483858;31;20136;-72
2022/01/16 08:08:47;;;;;;;44.85;17.42;;;;;;;-3.83;96.32;99734.59;4484422;31;20100;-72
2022/01/16 08:11:14;;;;;;;37.38;16.60;;;;;;;-3.67;95.47;99735.22;4483917;31;20160;-72
2022/01/16 08:13:41;;;;;;;39.95;17.23;;;;;;;-3.61;95.09;99729.16;4483859;31;20454;-72
2022/01/16 08:16:08;;;;;;;39.03;17.27;;;;;;;-3.40;94.42;99718.53;4483717;31;20104;-72
2022/01/16 08:18:35;;;;;;;52.30;19.08;;;;;;;-3.28;93.58;99729.47;4483726;31;20160;-72
2022/01/16 08:21:03;;;;;;;43.78;16.65;;;;;;;-3.18;92.49;99725.84;4483786;31;20145;-72
2022/01/16 08:23:30;;;;;;;41.35;16.85;;;;;;;-3.15;92.29;99722.41;4483687;31;20433;-72
2022/01/16 08:25:57;;;;;;;47.70;18.80;;;;;;;-2.96;91.29;99734.00;4483571;31;20111;-72
2022/01/16 08:28:25;;;;;;;42.15;19.87;;;;;;;-3.09;90.72;99723.16;4483917;31;20492;-72
2022/01/16 08:30:53;;;;;;;47.95;20.02;;;;;;;-2.98;90.91;99720.38;4483534;31;20114;-72
2022/01/16 08:33:20;;;;;;;43.35;18.55;;;;;;;-3.10;91.35;99710.38;4484226;32;20139;-71
2022/01/16 08:35:48;;;;;;;53.15;20.12;;;;;;;-2.91;90.98;99718.53;4486089;31;20109;-72
2022/01/16 08:38:15;;;;;;;48.05;18.37;;;;;;;-2.90;90.81;99709.97;4485816;31;20145;-72
2022/01/16 08:40:43;;;;;;;46.17;20.05;;;;;;;-2.70;89.89;99694.19;4485979;31;20162;-72
2022/01/16 08:43:10;;;;;;;49.47;20.35;;;;;;;-2.81;89.43;99696.16;4485939;31;20080;-72
2022/01/16 08:45:39;;;;;;;46.97;20.35;;;;;;;-2.90;90.22;99682.63;4485916;31;20461;-72
2022/01/16 08:48:08;;;;;;;50.60;21.00;;;;;;;-2.61;89.69;99683.75;4485855;32;20104;-72
2022/01/16 08:50:36;;;;;;;56.22;22.98;;;;;;;-2.53;89.07;99675.91;4485830;31;20820;-72
2022/01/16 08:53:03;;;;;;;56.75;20.95;;;;;;;-2.46;88.31;99682.59;4485824;31;20160;-71
2022/01/16 08:55:32;;;;;;;47.60;20.35;;;;;;;-2.50;88.49;99679.25;4485855;32;20085;-72
2022/01/16 08:58:00;;;;;;;49.25;20.00;;;;;;;-2.17;88.14;99676.81;4485890;31;20076;-72
2022/01/16 09:00:27;;;;;;;43.10;18.58;;;;;;;-1.98;87.79;99669.53;4485868;31;20100;-72
2022/01/16 09:02:57;;;;;;;45.58;18.80;;;;;;;-2.04;87.77;99674.81;4485722;31;20106;-71
2022/01/16 09:05:25;;;;;;;43.67;19.05;;;;;;;-2.14;88.13;99663.06;4485967;32;20089;-72
2022/01/16 09:07:52;;;;;;;46.50;18.70;;;;;;;-1.96;87.36;99665.19;4486042;31;20096;-71
2022/01/16 09:10:20;;;;;;;41.35;18.12;;;;;;;-1.91;86.75;99675.38;4485892;31;20130;-71
2022/01/16 09:12:47;;;;;;;46.13;19.73;;;;;;;-1.74;85.87;99677.56;4485727;31;20088;-71
2022/01/16 09:15:14;;;;;;;40.97;17.23;;;;;;;-1.71;86.57;99671.47;4485860;31;20100;-72
2022/01/16 09:17:42;;;;;;;52.17;19.65;;;;;;;-1.38;85.18;99680.06;4485595;32;20096;-71
2022/01/16 09:20:13;;;;;;;45.70;18.45;;;;;;;-1.31;85.32;99676.47;4485661;31;20088;-72
2022/01/16 09:22:44;;;;;;;42.13;19.20;;;;;;;-1.01;84.00;99673.13;4485581;31;20076;-72
2022/01/16 09:25:13;;;;;;;47.38;19.35;;;;;;;-0.91;82.82;99677.97;4485783;31;20164;-72
2022/01/16 09:27:41;;;;;;;48.63;20.30;;;;;;;-1.05;82.80;99677.50;4485494;31;20123;-72
2022/01/16 09:30:09;;;;;;;37.75;19.30;;;;;;;-0.97;82.52;99669.56;4485568;31;20092;-72
2022/01/16 09:32:37;;;;;;;41.15;17.90;;;;;;;-0.73;82.18;99668.03;4485609;31;20119;-71
2022/01/16 09:35:06;;;;;;;42.20;19.00;;;;;;;-0.87;81.00;99665.03;4485656;31;20084;-71
2022/01/16 09:37:33;;;;;;;40.92;18.95;;;;;;;-0.95;82.14;99662.69;4485561;31;20204;-71
2022/01/16 09:40:01;;;;;;;39.88;17.60;;;;;;;-0.75;82.07;99656.97;4485807;31;20167;-71
2022/01/16 09:42:28;;;;;;;44.47;18.60;;;;;;;-0.82;82.12;99652.88;4485422;31;20092;-71
2022/01/16 09:44:55;;;;;;;38.75;17.65;;;;;;;-0.75;81.75;99644.09;4485236;31;20104;-72
2022/01/16 09:47:22;;;;;;;42.20;17.60;;;;;;;-0.60;81.07;99648.78;4484433;32;20104;-72
2022/01/16 09:49:50;;;;;;;46.40;18.05;;;;;;;-0.60;81.21;99650.53;4482762;31;74859;-71
2022/01/16 09:52:18;;;;;;;43.05;18.12;;;;;;;-0.54;80.25;99651.19;4485331;31;20099;-71
2022/01/16 09:54:46;;;;;;;42.55;17.17;;;;;;;-0.64;80.71;99648.94;4485292;31;20112;-71
2022/01/16 09:57:13;;;;;;;52.05;17.42;;;;;;;-0.79;80.58;99648.50;4485632;31;20092;-71
2022/01/16 09:59:40;;;;;;;44.13;18.00;;;;;;;-0.79;80.39;99637.34;4485172;31;20104;-71
2022/01/16 10:02:08;;;;;;;39.58;18.08;;;;;;;-0.68;80.00;99632.75;4485290;31;20122;-71
2022/01/16 10:04:41;;;;;;;47.25;17.52;;;;;;;-0.55;79.71;99639.19;4485345;32;20457;-71
2022/01/16 10:07:16;;;;;;;48.05;17.98;;;;;;;-0.60;80.31;99635.94;4485590;31;20088;-71
2022/01/16 10:09:48;;;;;;;41.47;17.37;;;;;;;-0.51;79.58;99633.97;4485468;31;20128;-71
2022/01/16 10:12:19;;;;;;;43.87;17.85;;;;;;;-0.50;78.94;99627.94;4484373;32;20509;-71
2022/01/16 10:14:49;;;;;;;38.95;17.45;;;;;;;-0.50;78.54;99620.22;4485356;31;20096;-71
2022/01/16 10:17:22;;;;;;;42.35;18.75;;;;;;;-0.59;79.57;99622.19;4485527;32;20544;-71
2022/01/16 10:20:01;;;;;;;42.13;17.15;;;;;;;-0.46;78.46;99616.66;4485084;31;20488;-72
2022/01/16 10:22:45;;;;;;;33.78;15.07;;;;;;;-0.60;79.17;99619.66;4469670;32;20076;-71
2022/01/16 10:25:14;;;;;;;40.55;17.40;;;;;;;-0.51;80.42;99615.97;4469496;32;20089;-71
2022/01/16 10:27:45;;;;;;;34.88;15.25;;;;;;;-0.41;79.04;99617.34;4469772;32;20104;-71
2022/01/16 10:30:15;;;;;;;51.45;18.25;;;;;;;-0.36;78.37;99615.50;4469768;32;20080;-71
2022/01/16 10:32:44;;;;;;;49.65;18.27;;;;;;;-0.40;77.14;99611.31;4469676;32;20145;-71
2022/01/16 10:35:23;;;;;;;44.50;16.30;;;;;;;-0.37;77.39;99608.66;4469567;32;20085;-71
2022/01/16 10:37:57;;;;;;;37.53;15.48;;;;;;;-0.46;78.83;99608.94;4469428;32;20096;-71
2022/01/16 10:40:33;;;;;;;46.47;17.40;;;;;;;-0.40;79.02;99619.03;4469451;32;20458;-71
2022/01/16 10:43:05;;;;;;;40.78;17.60;;;;;;;-0.38;77.68;99607.81;4469294;32;20092;-71
2022/01/16 10:45:34;;;;;;;47.45;18.75;;;;;;;-0.24;77.27;99602.22;4469647;32;20373;-71
2022/01/16 10:48:03;;;;;;;38.78;16.25;;;;;;;-0.34;78.33;99594.84;4469273;32;20694;-71
2022/01/16 10:50:34;;;;;;;32.80;15.30;;;;;;;-0.48;79.11;99600.44;4469219;32;20136;-71
2022/01/16 10:53:06;;;;;;;39.67;15.15;;;;;;;-0.49;79.98;99603.88;4468191;32;20116;-71
2022/01/16 10:55:54;;;;;;;44.17;17.25;;;;;;;-0.39;79.17;99607.88;4469465;32;20089;-71
2022/01/16 10:58:26;;;;;;;41.13;16.37;;;;;;;-0.46;79.92;99609.78;4468491;32;20138;-71
2022/01/16 11:01:04;;;;;;;40.15;16.65;;;;;;;-0.42;79.50;99606.22;4474738;32;20088;-71
2022/01/16 11:03:46;;;;;;;36.22;16.77;;;;;;;-0.37;80.06;99603.50;4484647;31;20088;-71
2022/01/16 11:06:15;;;;;;;42.88;16.62;;;;;;;-0.14;78.88;99599.38;4484992;31;20081;-71
2022/01/16 11:08:53;;;;;;;47.00;18.23;;;;;;;0.02;77.71;99595.41;4484706;32;20130;-71
2022/01/16 11:11:20;;;;;;;46.75;17.33;;;;;;;0.03;76.45;99596.25;4484687;31;20093;-71
2022/01/16 11:13:47;;;;;;;48.25;17.60;;;;;;;0.00;77.63;99589.47;4484674;31;20097;-71
2022/01/16 11:16:15;;;;;;;50.45;18.90;;;;;;;0.05;77.28;99585.00;4484647;31;20840;-71
2022/01/16 11:18:48;;;;;;;42.10;17.87;;;;;;;0.02;77.11;99585.09;4483400;32;20123;-71
2022/01/16 11:21:31;;;;;;;40.08;17.73;;;;;;;0.13;77.31;99587.31;4484557;31;20092;-71
2022/01/16 11:26:41;;;;;;;55.97;20.70;;;;;;;0.08;78.35;99578.91;4484611;32;20156;-71
2022/01/16 11:29:08;;;;;;;58.95;23.25;;;;;;;0.11;77.90;99564.19;4483249;32;20104;-71
2022/01/16 11:31:36;;;;;;;55.12;21.73;;;;;;;0.12;78.24;99563.31;4484202;31;20490;-71
2022/01/16 11:34:03;;;;;;;60.17;21.58;;;;;;;0.26;77.47;99552.53;4483150;32;20551;-71
2022/01/16 11:36:30;;;;;;;59.35;23.30;;;;;;;0.30;77.50;99545.50;4484504;32;20176;-71
2022/01/16 11:39:00;;;;;;;50.72;21.77;;;;;;;0.22;77.75;99540.62;4484236;31;20092;-71
2022/01/16 11:41:35;;;;;;;49.33;19.75;;;;;;;0.27;77.53;99543.03;4483142;32;20088;-71
2022/01/16 11:44:06;;;;;;;48.60;20.92;;;;;;;0.23;77.75;99538.88;4484184;31;20115;-71
2022/01/16 11:46:40;;;;;;;50.55;19.67;;;;;;;0.45;77.14;99532.09;4484341;32;20494;-71
2022/01/16 11:49:13;;;;;;;45.83;19.15;;;;;;;0.38;77.12;99535.78;4484074;31;20080;-71
2022/01/16 11:51:41;;;;;;;44.43;17.53;;;;;;;0.17;77.55;99532.22;4484153;31;20084;-71
2022/01/16 11:54:21;;;;;;;48.42;19.23;;;;;;;0.26;77.54;99536.19;4483799;31;20191;-71
2022/01/16 11:56:51;;;;;;;40.88;16.90;;;;;;;0.09;77.40;99529.06;4484207;31;20096;-71
2022/01/16 11:59:26;;;;;;;39.78;18.40;;;;;;;0.01;78.20;99526.75;4484192;31;20080;-71
2022/01/16 12:02:00;;;;;;;;;;;;;;;0.08;77.89;99522.25;4484374;32;20145;-71
2022/01/16 12:04:28;;;;;;;42.67;18.08;;;;;;;-0.09;79.27;99510.78;4484012;31;20035;-71
2022/01/16 12:06:59;;;;;;;45.20;18.00;;;;;;;-0.06;79.70;99520.09;4484071;31;20462;-71
2022/01/16 12:12:12;;;;;;;50.30;19.65;;;;;;;0.20;77.54;99497.75;4486180;32;20518;-71
2022/01/16 12:15:08;;;;;;;45.58;18.30;;;;;;;0.07;78.28;99497.34;4486041;31;20096;-71
2022/01/16 12:17:43;;;;;;;45.25;19.77;;;;;;;0.24;77.49;99494.19;4452308;32;20295;-71